createdAt,value
2024-03-08T00:00:49.576Z,9.418322
2024-03-08T00:01:49.620Z,9.418281
2024-03-08T00:02:49.622Z,9.418249
2024-03-08T00:03:49.565Z,9.418291
2024-03-08T00:04:49.579Z,9.418260
2024-03-08T00:05:49.588Z,9.418283
2024-03-08T00:06:49.549Z,9.418336
2024-03-08T00:07:49.550Z,9.418277
2024-03-08T00:08:49.609Z,9.418253
2024-03-08T00:09:49.523Z,9.418284
2024-03-08T00:10:49.555Z,9.418262
2024-03-08T00:11:49.630Z,9.418221
2024-03-08T00:12:49.520Z,9.418307
2024-03-08T00:13:49.483Z,9.418335
2024-03-08T00:14:49.568Z,9.418266
2024-03-08T00:15:49.479Z,9.418270
2024-03-08T00:16:49.514Z,9.418298
2024-03-08T00:17:49.695Z,9.418221
2024-03-08T00:18:49.596Z,9.418204
2024-03-08T00:19:49.459Z,9.418163
2024-03-08T00:20:49.519Z,9.418431
2024-03-08T00:21:49.511Z,9.418333
2024-03-08T00:22:49.463Z,9.418253
2024-03-08T00:23:49.494Z,9.418316
2024-03-08T00:24:49.428Z,9.418261
2024-03-08T00:25:49.443Z,9.418288
2024-03-08T00:26:49.439Z,9.418227
2024-03-08T00:27:49.427Z,9.418355
2024-03-08T00:28:49.415Z,9.418321
2024-03-08T00:29:49.525Z,9.418305
2024-03-08T00:30:49.412Z,9.418248
2024-03-08T00:31:49.380Z,9.418267
2024-03-08T00:32:49.458Z,9.418274
2024-03-08T00:33:49.476Z,9.418358
2024-03-08T00:34:50.063Z,9.418361
2024-03-08T00:35:49.418Z,9.418348
2024-03-08T00:36:49.354Z,9.418377
2024-03-08T00:37:49.366Z,9.418333
2024-03-08T00:38:49.412Z,9.418342
2024-03-08T00:39:49.326Z,9.418332
2024-03-08T00:40:49.355Z,9.418330
2024-03-08T00:41:49.333Z,9.418373
2024-03-08T00:42:49.332Z,9.418397
2024-03-08T00:43:49.317Z,9.418372
2024-03-08T00:44:49.429Z,9.418384
2024-03-08T00:45:49.289Z,9.418386
2024-03-08T00:46:51.030Z,9.418253
2024-03-08T00:47:49.320Z,9.418381
2024-03-08T00:48:49.338Z,9.418349
2024-03-08T00:49:49.279Z,9.418380
2024-03-08T00:50:49.343Z,9.418172
2024-03-08T00:51:49.355Z,9.418223
2024-03-08T00:52:49.259Z,9.418152
2024-03-08T00:53:49.273Z,9.418116
2024-03-08T00:54:49.229Z,9.418161
2024-03-08T00:55:49.224Z,9.418174
2024-03-08T00:56:49.257Z,9.418242
2024-03-08T00:57:49.214Z,9.418424
2024-03-08T00:58:49.200Z,9.418306
2024-03-08T00:59:49.240Z,9.418268
2024-03-08T01:00:49.225Z,9.418340
2024-03-08T01:01:49.180Z,9.418316
2024-03-08T01:02:49.207Z,9.418293
2024-03-08T01:03:49.164Z,9.418228
2024-03-08T01:04:49.176Z,9.418199
2024-03-08T01:05:49.170Z,9.418259
2024-03-08T01:06:49.138Z,9.418002
2024-03-08T01:07:49.141Z,9.418036
2024-03-08T01:08:49.146Z,9.418188
2024-03-08T01:09:49.147Z,9.418219
2024-03-08T01:10:49.154Z,9.418203
2024-03-08T01:11:49.134Z,9.418271
2024-03-08T01:12:49.111Z,9.418239
2024-03-08T01:13:49.099Z,9.418263
2024-03-08T01:14:49.129Z,9.418143
2024-03-08T01:15:49.114Z,9.418078
2024-03-08T01:16:49.106Z,9.418048
2024-03-08T01:17:49.185Z,9.418005
2024-03-08T01:18:49.206Z,9.418182
2024-03-08T01:19:49.062Z,9.418170
2024-03-08T01:20:49.082Z,9.418171
2024-03-08T01:21:50.058Z,9.418061
2024-03-08T01:22:49.085Z,9.418100
2024-03-08T01:23:49.130Z,9.418113
2024-03-08T01:24:49.029Z,9.418141
2024-03-08T01:25:49.024Z,9.418243
2024-03-08T01:26:49.177Z,9.418177
2024-03-08T01:27:49.048Z,9.418275
2024-03-08T01:28:49.007Z,9.418308
2024-03-08T01:29:49.112Z,9.418169
2024-03-08T01:30:49.000Z,9.418234
2024-03-08T01:31:48.981Z,9.418255
2024-03-08T01:32:49.133Z,9.418256
2024-03-08T01:33:49.086Z,9.418289
2024-03-08T01:34:48.970Z,9.418171
2024-03-08T01:35:49.000Z,9.418120
2024-03-08T01:36:49.974Z,9.418168
2024-03-08T01:37:48.972Z,9.418216
2024-03-08T01:38:48.981Z,9.418138
2024-03-08T01:39:48.937Z,9.418061
2024-03-08T01:40:48.927Z,9.418243
2024-03-08T01:41:48.963Z,9.418146
2024-03-08T01:42:48.923Z,9.418096
2024-03-08T01:43:49.142Z,9.418421
2024-03-08T01:44:48.962Z,9.418293
2024-03-08T01:45:48.919Z,9.418097
2024-03-08T01:46:48.900Z,9.418091
2024-03-08T01:47:48.972Z,9.417925
2024-03-08T01:48:49.349Z,9.418305
2024-03-08T01:49:48.882Z,9.418245
2024-03-08T01:50:48.939Z,9.418259
2024-03-08T01:51:48.880Z,9.418419
2024-03-08T01:52:48.918Z,9.418400
2024-03-08T01:53:49.011Z,9.418286
2024-03-08T01:54:48.847Z,9.418345
2024-03-08T01:55:48.835Z,9.418176
2024-03-08T01:56:48.859Z,9.418330
2024-03-08T01:57:48.826Z,9.418323
2024-03-08T01:58:48.902Z,9.418316
2024-03-08T01:59:48.819Z,9.418226
2024-03-08T02:00:48.839Z,9.418239
2024-03-08T02:01:48.799Z,9.418264
2024-03-08T02:02:48.852Z,9.418347
2024-03-08T02:03:48.895Z,9.418057
2024-03-08T02:04:48.779Z,9.418272
2024-03-08T02:05:48.836Z,9.418348
2024-03-08T02:06:48.766Z,9.418377
2024-03-08T02:07:48.762Z,9.418344
2024-03-08T02:08:48.797Z,9.418379
2024-03-08T02:09:48.763Z,9.418466
2024-03-08T02:10:48.816Z,9.418395
2024-03-08T02:11:48.759Z,9.418470
2024-03-08T02:12:48.740Z,9.418386
2024-03-08T02:13:48.728Z,9.418402
2024-03-08T02:14:48.753Z,9.418362
2024-03-08T02:15:48.734Z,9.418469
2024-03-08T02:16:48.709Z,9.418391
2024-03-08T02:17:48.744Z,9.418424
2024-03-08T02:18:48.752Z,9.418394
2024-03-08T02:19:48.712Z,9.418483
2024-03-08T02:20:48.718Z,9.418375
2024-03-08T02:21:48.677Z,9.418265
2024-03-08T02:22:48.663Z,9.418301
2024-03-08T02:23:48.704Z,9.418302
2024-03-08T02:24:48.684Z,9.418237
2024-03-08T02:25:48.680Z,9.418285
2024-03-08T02:26:48.689Z,9.418313
2024-03-08T02:27:48.640Z,9.418267
2024-03-08T02:28:48.631Z,9.418286
2024-03-08T02:29:48.719Z,9.418222
2024-03-08T02:30:48.634Z,9.418250
2024-03-08T02:31:48.613Z,9.418270
2024-03-08T02:32:48.638Z,9.418291
2024-03-08T02:33:48.756Z,9.418352
2024-03-08T02:34:48.598Z,9.418261
2024-03-08T02:35:48.746Z,9.418329
2024-03-08T02:36:48.586Z,9.418275
2024-03-08T02:37:48.579Z,9.418242
2024-03-08T02:38:48.595Z,9.418244
2024-03-08T02:39:48.575Z,9.418309
2024-03-08T02:40:48.579Z,9.418318
2024-03-08T02:41:48.569Z,9.418322
2024-03-08T02:42:48.545Z,9.418372
2024-03-08T02:43:48.546Z,9.418248
2024-03-08T02:44:48.553Z,9.418225
2024-03-08T02:45:48.534Z,9.418250
2024-03-08T02:46:48.517Z,9.418240
2024-03-08T02:47:48.575Z,9.418277
2024-03-08T02:48:48.626Z,9.418194
2024-03-08T02:49:48.506Z,9.418324
2024-03-08T02:50:48.555Z,9.418340
2024-03-08T02:51:48.486Z,9.418362
2024-03-08T02:52:48.476Z,9.418345
2024-03-08T02:53:48.498Z,9.418317
2024-03-08T02:54:48.469Z,9.418296
2024-03-08T02:55:48.497Z,9.418304
2024-03-08T02:56:48.484Z,9.418325
2024-03-08T02:57:48.606Z,9.418305
2024-03-08T02:58:48.434Z,9.418302
2024-03-08T02:59:48.432Z,9.418331
2024-03-08T03:00:48.586Z,9.418297
2024-03-08T03:01:48.693Z,9.418335
2024-03-08T03:02:48.472Z,9.418309
2024-03-08T03:03:48.756Z,9.418342
2024-03-08T03:04:48.414Z,9.418298
2024-03-08T03:05:49.612Z,9.418357
2024-03-08T03:06:48.401Z,9.418276
2024-03-08T03:07:48.383Z,9.418296
2024-03-08T03:08:48.394Z,9.418337
2024-03-08T03:09:48.369Z,9.418367
2024-03-08T03:10:48.385Z,9.418324
2024-03-08T03:11:48.372Z,9.418328
2024-03-08T03:12:48.354Z,9.418300
2024-03-08T03:13:48.345Z,9.418331
2024-03-08T03:14:48.454Z,9.418348
2024-03-08T03:15:48.361Z,9.418306
2024-03-08T03:16:48.355Z,9.418281
2024-03-08T03:17:48.367Z,9.418295
2024-03-08T03:18:48.531Z,9.418310
2024-03-08T03:19:48.325Z,9.418325
2024-03-08T03:20:48.366Z,9.418278
2024-03-08T03:21:48.636Z,9.418330
2024-03-08T03:22:48.304Z,9.418281
2024-03-08T03:23:48.304Z,9.418333
2024-03-08T03:24:48.269Z,9.418358
2024-03-08T03:25:48.277Z,9.418300
2024-03-08T03:26:48.310Z,9.418272
2024-03-08T03:27:48.280Z,9.418339
2024-03-08T03:28:48.251Z,9.418313
2024-03-08T03:29:48.272Z,9.418305
2024-03-08T03:30:48.487Z,9.418370
2024-03-08T03:31:48.235Z,9.418385
2024-03-08T03:32:48.439Z,9.418331
2024-03-08T03:33:48.340Z,9.418380
2024-03-08T03:34:48.238Z,9.418338
2024-03-08T03:35:48.273Z,9.418467
2024-03-08T03:36:48.219Z,9.418427
2024-03-08T03:37:48.195Z,9.418481
2024-03-08T03:38:48.238Z,9.418858
2024-03-08T03:39:48.185Z,9.419112
2024-03-08T03:40:48.179Z,9.419194
2024-03-08T03:41:48.209Z,9.419124
2024-03-08T03:42:48.176Z,9.419066
2024-03-08T03:43:48.154Z,9.419114
2024-03-08T03:44:48.214Z,9.418934
2024-03-08T03:45:48.174Z,9.418688
2024-03-08T03:46:48.144Z,9.418266
2024-03-08T03:47:48.212Z,9.418209
2024-03-08T03:48:48.319Z,9.418410
2024-03-08T03:49:48.131Z,9.418405
2024-03-08T03:50:48.138Z,9.418434
2024-03-08T03:51:48.112Z,9.418303
2024-03-08T03:52:48.109Z,9.418354
2024-03-08T03:53:48.142Z,9.418360
2024-03-08T03:54:48.110Z,9.418285
2024-03-08T03:55:48.097Z,9.418422
2024-03-08T03:56:48.110Z,9.418241
2024-03-08T03:57:48.074Z,9.418272
2024-03-08T03:58:48.088Z,9.418236
2024-03-08T03:59:48.093Z,9.418280
2024-03-08T04:00:48.079Z,9.418313
2024-03-08T04:01:48.108Z,9.418307
2024-03-08T04:02:48.064Z,9.418307
2024-03-08T04:03:49.042Z,9.418329
2024-03-08T04:04:48.125Z,9.418348
2024-03-08T04:05:48.085Z,9.418391
2024-03-08T04:06:48.016Z,9.418391
2024-03-08T04:07:48.024Z,9.418283
2024-03-08T04:08:48.019Z,9.418214
2024-03-08T04:09:48.002Z,9.418274
2024-03-08T04:10:47.991Z,9.418319
2024-03-08T04:11:48.166Z,9.418287
2024-03-08T04:12:47.981Z,9.418197
2024-03-08T04:13:47.970Z,9.418227
2024-03-08T04:14:48.055Z,9.418258
2024-03-08T04:15:50.161Z,9.418284
2024-03-08T04:16:48.988Z,9.418305
2024-03-08T04:17:48.083Z,9.418283
2024-03-08T04:18:48.007Z,9.418287
2024-03-08T04:19:47.930Z,9.418336
2024-03-08T04:20:47.967Z,9.418297
2024-03-08T04:21:47.929Z,9.418173
2024-03-08T04:22:47.927Z,9.418200
2024-03-08T04:23:47.945Z,9.418200
2024-03-08T04:24:47.889Z,9.418236
2024-03-08T04:25:48.901Z,9.418285
2024-03-08T04:26:47.954Z,9.418282
2024-03-08T04:27:47.897Z,9.418250
2024-03-08T04:28:47.902Z,9.418246
2024-03-08T04:29:47.956Z,9.418296
2024-03-08T04:30:47.865Z,9.418277
2024-03-08T04:31:47.848Z,9.418280
2024-03-08T04:32:47.964Z,9.418331
2024-03-08T04:33:48.002Z,9.418331
2024-03-08T04:34:47.857Z,9.418269
2024-03-08T04:35:47.860Z,9.418275
2024-03-08T04:36:47.824Z,9.418307
2024-03-08T04:37:47.829Z,9.418267
2024-03-08T04:38:47.847Z,9.418283
2024-03-08T04:39:47.812Z,9.418156
2024-03-08T04:40:47.806Z,9.418185
2024-03-08T04:41:47.828Z,9.418179
2024-03-08T04:42:47.791Z,9.418270
2024-03-08T04:43:47.786Z,9.418313
2024-03-08T04:44:47.791Z,9.418308
2024-03-08T04:45:47.799Z,9.418205
2024-03-08T04:46:47.777Z,9.418233
2024-03-08T04:47:47.883Z,9.418291
2024-03-08T04:48:47.832Z,9.418244
2024-03-08T04:49:47.732Z,9.418237
2024-03-08T04:50:47.761Z,9.418275
2024-03-08T04:51:47.729Z,9.418247
2024-03-08T04:52:47.726Z,9.418301
2024-03-08T04:53:47.758Z,9.418410
2024-03-08T04:54:47.726Z,9.418225
2024-03-08T04:55:47.694Z,9.418447
2024-03-08T04:56:47.699Z,9.418299
2024-03-08T04:57:47.697Z,9.418325
2024-03-08T04:58:47.689Z,9.418313
2024-03-08T04:59:47.788Z,9.418274
2024-03-08T05:00:47.702Z,9.418342
2024-03-08T05:01:47.662Z,9.418271
2024-03-08T05:02:47.772Z,9.418233
2024-03-08T05:03:47.640Z,9.418115
2024-03-08T05:04:47.662Z,9.418045
2024-03-08T05:05:47.697Z,9.418094
2024-03-08T05:06:47.621Z,9.418251
2024-03-08T05:07:47.618Z,9.418227
2024-03-08T05:08:47.672Z,9.418245
2024-03-08T05:09:47.606Z,9.418345
2024-03-08T05:10:47.679Z,9.418457
2024-03-08T05:11:47.668Z,9.418367
2024-03-08T05:12:47.595Z,9.418202
2024-03-08T05:13:47.607Z,9.418201
2024-03-08T05:14:47.639Z,9.418174
2024-03-08T05:15:47.565Z,9.418227
2024-03-08T05:16:47.558Z,9.418342
2024-03-08T05:17:47.632Z,9.418260
2024-03-08T05:18:47.634Z,9.418271
2024-03-08T05:19:47.547Z,9.418232
2024-03-08T05:20:47.582Z,9.418188
2024-03-08T05:21:47.556Z,9.418081
2024-03-08T05:22:47.554Z,9.418256
2024-03-08T05:23:47.555Z,9.418382
2024-03-08T05:24:47.526Z,9.418315
2024-03-08T05:25:47.508Z,9.418244
2024-03-08T05:26:47.878Z,9.418337
2024-03-08T05:27:47.494Z,9.418270
2024-03-08T05:28:47.477Z,9.418160
2024-03-08T05:29:47.593Z,9.418188
2024-03-08T05:30:47.480Z,9.418289
2024-03-08T05:31:47.461Z,9.418189
2024-03-08T05:32:47.528Z,9.418271
2024-03-08T05:33:47.548Z,9.418340
2024-03-08T05:34:47.454Z,9.418324
2024-03-08T05:35:47.464Z,9.418384
2024-03-08T05:36:47.456Z,9.418342
2024-03-08T05:37:47.444Z,9.418399
2024-03-08T05:38:47.453Z,9.418360
2024-03-08T05:39:47.413Z,9.418297
2024-03-08T05:40:47.424Z,9.418308
2024-03-08T05:41:47.445Z,9.418296
2024-03-08T05:42:47.400Z,9.418329
2024-03-08T05:43:47.403Z,9.418349
2024-03-08T05:44:47.418Z,9.418370
2024-03-08T05:45:47.398Z,9.418463
2024-03-08T05:46:48.076Z,9.418308
2024-03-08T05:47:47.486Z,9.418311
2024-03-08T05:48:47.405Z,9.418447
2024-03-08T05:49:47.382Z,9.418462
2024-03-08T05:50:47.408Z,9.418344
2024-03-08T05:51:47.336Z,9.418221
2024-03-08T05:52:47.354Z,9.418220
2024-03-08T05:53:47.350Z,9.418199
2024-03-08T05:54:47.349Z,9.418221
2024-03-08T05:55:47.337Z,9.418317
2024-03-08T05:56:47.391Z,9.418396
2024-03-08T05:57:47.300Z,9.418359
2024-03-08T05:58:47.288Z,9.418364
2024-03-08T05:59:47.322Z,9.418334
2024-03-08T06:00:49.195Z,9.418300
2024-03-08T06:01:47.321Z,9.418475
2024-03-08T06:02:47.300Z,9.418418
2024-03-08T06:03:47.255Z,9.418361
2024-03-08T06:04:47.252Z,9.418303
2024-03-08T06:05:47.292Z,9.418321
2024-03-08T06:06:49.600Z,9.418262
2024-03-08T06:07:47.251Z,9.418260
2024-03-08T06:08:47.254Z,9.418316
2024-03-08T06:09:47.228Z,9.418359
2024-03-08T06:10:47.325Z,9.418368
2024-03-08T06:11:47.270Z,9.418373
2024-03-08T06:12:47.255Z,9.418271
2024-03-08T06:13:47.208Z,9.418336
2024-03-08T06:14:47.267Z,9.418350
2024-03-08T06:15:47.207Z,9.418380
2024-03-08T06:16:47.179Z,9.418391
2024-03-08T06:17:47.237Z,9.418388
2024-03-08T06:18:47.226Z,9.418348
2024-03-08T06:19:47.193Z,9.418352
2024-03-08T06:20:48.197Z,9.418365
2024-03-08T06:21:47.153Z,9.418359
2024-03-08T06:22:47.154Z,9.418446
2024-03-08T06:23:47.168Z,9.418483
2024-03-08T06:24:47.940Z,9.418490
2024-03-08T06:25:47.137Z,9.418344
2024-03-08T06:26:47.168Z,9.418258
2024-03-08T06:27:47.117Z,9.418308
2024-03-08T06:28:47.136Z,9.418302
2024-03-08T06:29:47.181Z,9.418289
2024-03-08T06:30:47.114Z,9.418331
2024-03-08T06:31:47.100Z,9.418319
2024-03-08T06:32:47.234Z,9.418324
2024-03-08T06:33:47.272Z,9.418249
2024-03-08T06:34:47.091Z,9.418265
2024-03-08T06:35:47.097Z,9.418247
2024-03-08T06:36:47.241Z,9.418311
2024-03-08T06:37:47.053Z,9.418264
2024-03-08T06:38:47.233Z,9.418319
2024-03-08T06:39:47.058Z,9.418342
2024-03-08T06:40:47.042Z,9.418242
2024-03-08T06:41:47.059Z,9.418294
2024-03-08T06:42:47.051Z,9.418296
2024-03-08T06:43:47.051Z,9.418266
2024-03-08T06:44:47.046Z,9.418252
2024-03-08T06:45:47.006Z,9.418271
2024-03-08T06:46:47.011Z,9.418273
2024-03-08T06:47:47.072Z,9.418242
2024-03-08T06:48:47.287Z,9.418344
2024-03-08T06:49:47.018Z,9.418349
2024-03-08T06:50:47.121Z,9.418415
2024-03-08T06:51:47.019Z,9.418332
2024-03-08T06:52:46.979Z,9.418332
2024-03-08T06:53:47.152Z,9.418282
2024-03-08T06:54:46.975Z,9.418164
2024-03-08T06:55:47.036Z,9.418216
2024-03-08T06:56:46.973Z,9.418254
2024-03-08T06:57:46.941Z,9.418313
2024-03-08T06:58:46.939Z,9.418289
2024-03-08T06:59:46.945Z,9.418336
2024-03-08T07:00:46.988Z,9.418223
2024-03-08T07:01:47.083Z,9.418254
2024-03-08T07:02:47.049Z,9.418211
2024-03-08T07:03:46.911Z,9.418277
2024-03-08T07:04:46.938Z,9.418222
2024-03-08T07:05:46.983Z,9.418180
2024-03-08T07:06:46.880Z,9.418277
2024-03-08T07:07:46.896Z,9.418253
2024-03-08T07:08:46.943Z,9.418288
2024-03-08T07:09:47.000Z,9.418200
2024-03-08T07:10:48.538Z,9.418257
2024-03-08T07:11:47.075Z,9.418221
2024-03-08T07:12:46.930Z,9.418245
2024-03-08T07:13:46.884Z,9.418297
2024-03-08T07:14:46.957Z,9.418198
2024-03-08T07:15:46.895Z,9.418143
2024-03-08T07:16:46.899Z,9.418138
2024-03-08T07:17:46.852Z,9.418165
2024-03-08T07:18:46.921Z,9.418238
2024-03-08T07:19:47.430Z,9.418262
2024-03-08T07:20:46.836Z,9.418275
2024-03-08T07:21:46.794Z,9.418357
2024-03-08T07:22:49.110Z,9.418335
2024-03-08T07:23:46.798Z,9.418258
2024-03-08T07:24:46.762Z,9.418253
2024-03-08T07:25:46.761Z,9.418222
2024-03-08T07:26:46.837Z,9.418280
2024-03-08T07:27:46.757Z,9.418247
2024-03-08T07:28:46.731Z,9.418235
2024-03-08T07:29:46.768Z,9.418221
2024-03-08T07:30:46.944Z,9.418226
2024-03-08T07:31:46.726Z,9.418285
2024-03-08T07:32:46.757Z,9.418330
2024-03-08T07:33:46.942Z,9.418339
2024-03-08T07:34:46.701Z,9.418242
2024-03-08T07:35:46.817Z,9.418209
2024-03-08T07:36:46.836Z,9.418313
2024-03-08T07:37:46.710Z,9.418209
2024-03-08T07:38:46.685Z,9.418186
2024-03-08T07:39:46.674Z,9.418235
2024-03-08T07:40:46.848Z,9.418246
2024-03-08T07:41:46.720Z,9.418291
2024-03-08T07:42:46.656Z,9.418424
2024-03-08T07:43:46.656Z,9.418202
2024-03-08T07:44:46.708Z,9.418192
2024-03-08T07:45:46.630Z,9.418214
2024-03-08T07:46:46.658Z,9.418243
2024-03-08T07:47:46.740Z,9.418259
2024-03-08T07:48:46.846Z,9.418272
2024-03-08T07:49:46.598Z,9.418188
2024-03-08T07:50:46.605Z,9.418176
2024-03-08T07:51:46.587Z,9.418196
2024-03-08T07:52:47.415Z,9.418314
2024-03-08T07:53:46.618Z,9.418376
2024-03-08T07:54:46.618Z,9.418394
2024-03-08T07:55:46.557Z,9.418290
2024-03-08T07:56:46.549Z,9.418283
2024-03-08T07:57:46.554Z,9.418195
2024-03-08T07:58:46.607Z,9.418378
2024-03-08T07:59:46.525Z,9.418316
2024-03-08T08:00:46.532Z,9.418322
2024-03-08T08:01:46.593Z,9.418253
2024-03-08T08:02:46.518Z,9.418365
2024-03-08T08:03:46.508Z,9.418434
2024-03-08T08:04:46.700Z,9.418297
2024-03-08T08:05:46.489Z,9.418234
2024-03-08T08:06:46.505Z,9.418090
2024-03-08T08:07:47.594Z,9.418263
2024-03-08T08:08:46.599Z,9.418246
2024-03-08T08:09:46.467Z,9.418130
2024-03-08T08:10:46.522Z,9.418189
2024-03-08T08:11:46.497Z,9.418376
2024-03-08T08:12:46.454Z,9.418248
2024-03-08T08:13:46.480Z,9.418059
2024-03-08T08:14:46.440Z,9.418195
2024-03-08T08:15:46.440Z,9.418188
2024-03-08T08:16:46.486Z,9.418297
2024-03-08T08:17:46.477Z,9.418257
2024-03-08T08:18:46.441Z,9.418289
2024-03-08T08:19:46.457Z,9.418038
2024-03-08T08:20:46.434Z,9.417865
2024-03-08T08:21:46.390Z,9.418056
2024-03-08T08:22:46.758Z,9.418188
2024-03-08T08:23:46.385Z,9.418482
2024-03-08T08:24:46.859Z,9.418324
2024-03-08T08:25:46.384Z,9.418296
2024-03-08T08:26:46.352Z,9.418364
2024-03-08T08:27:46.428Z,9.418370
2024-03-08T08:28:46.882Z,9.418350
2024-03-08T08:29:46.337Z,9.418195
2024-03-08T08:30:46.354Z,9.418235
2024-03-08T08:31:46.347Z,9.418281
2024-03-08T08:32:46.373Z,9.418271
2024-03-08T08:33:48.861Z,9.418248
2024-03-08T08:34:46.412Z,9.418148
2024-03-08T08:35:46.311Z,9.418236
2024-03-08T08:36:46.376Z,9.418189
2024-03-08T08:37:46.314Z,9.418226
2024-03-08T08:38:47.816Z,9.418346
2024-03-08T08:39:47.276Z,9.418759
2024-03-08T08:40:46.316Z,9.418450
2024-03-08T08:41:46.348Z,9.418118
2024-03-08T08:42:47.100Z,9.418171
2024-03-08T08:43:54.606Z,9.418251
2024-03-08T08:44:48.247Z,9.418304
2024-03-08T08:45:46.235Z,9.418305
2024-03-08T08:46:46.267Z,9.418226
2024-03-08T08:47:46.684Z,9.418169
2024-03-08T08:48:46.194Z,9.418188
2024-03-08T08:49:46.235Z,9.418202
2024-03-08T08:50:46.205Z,9.418309
2024-03-08T08:51:46.161Z,9.418200
2024-03-08T08:52:46.173Z,9.418135
2024-03-08T08:53:46.171Z,9.418223
2024-03-08T08:54:48.910Z,9.418149
2024-03-08T08:55:46.172Z,9.418205
2024-03-08T08:56:46.157Z,9.418083
2024-03-08T08:57:46.130Z,9.418143
2024-03-08T08:58:46.163Z,9.418295
2024-03-08T08:59:46.117Z,9.418335
2024-03-08T09:00:46.114Z,9.418297
2024-03-08T09:01:46.168Z,9.418281
2024-03-08T09:02:46.119Z,9.418274
2024-03-08T09:03:46.098Z,9.418234
2024-03-08T09:04:46.176Z,9.418322
2024-03-08T09:05:46.423Z,9.418306
2024-03-08T09:06:47.123Z,9.418317
2024-03-08T09:07:46.312Z,9.418288
2024-03-08T09:08:46.070Z,9.418241
2024-03-08T09:09:46.053Z,9.418240
2024-03-08T09:10:47.617Z,9.418188
2024-03-08T09:11:46.186Z,9.418283
2024-03-08T09:12:46.158Z,9.418285
2024-03-08T09:13:46.098Z,9.418394
2024-03-08T09:14:46.023Z,9.418336
2024-03-08T09:15:46.020Z,9.418315
2024-03-08T09:16:46.126Z,9.418343
2024-03-08T09:17:46.040Z,9.418369
2024-03-08T09:18:45.999Z,9.418350
2024-03-08T09:19:46.032Z,9.418311
2024-03-08T09:20:45.982Z,9.418315
2024-03-08T09:21:45.971Z,9.418284
2024-03-08T09:22:46.111Z,9.418289
2024-03-08T09:23:46.010Z,9.418310
2024-03-08T09:24:45.966Z,9.418340
2024-03-08T09:25:47.694Z,9.418346
2024-03-08T09:26:46.947Z,9.418369
2024-03-08T09:27:45.947Z,9.418305
2024-03-08T09:28:45.992Z,9.418355
2024-03-08T09:29:45.936Z,9.418408
2024-03-08T09:30:54.044Z,9.418439
2024-03-08T09:31:47.965Z,9.418443
2024-03-08T09:32:45.928Z,9.418372
2024-03-08T09:33:45.906Z,9.418304
2024-03-08T09:34:45.914Z,9.418420
2024-03-08T09:35:45.886Z,9.418322
2024-03-08T09:36:45.883Z,9.418384
2024-03-08T09:37:45.927Z,9.418418
2024-03-08T09:38:45.874Z,9.418418
2024-03-08T09:39:45.879Z,9.418344
2024-03-08T09:40:45.855Z,9.418364
2024-03-08T09:41:45.850Z,9.418406
2024-03-08T09:42:45.850Z,9.418523
2024-03-08T09:43:45.961Z,9.418710
2024-03-08T09:44:45.844Z,9.418713
2024-03-08T09:45:45.828Z,9.418637
2024-03-08T09:46:46.838Z,9.418453
2024-03-08T09:47:45.831Z,9.418439
2024-03-08T09:48:45.944Z,9.418419
2024-03-08T09:49:45.844Z,9.418315
2024-03-08T09:50:45.800Z,9.418232
2024-03-08T09:51:45.789Z,9.418201
2024-03-08T09:52:45.798Z,9.418240
2024-03-08T09:53:45.779Z,9.418262
2024-03-08T09:54:45.775Z,9.418145
2024-03-08T09:55:45.891Z,9.418281
2024-03-08T09:56:45.842Z,9.418270
2024-03-08T09:57:45.785Z,9.418342
2024-03-08T09:58:45.786Z,9.418347
2024-03-08T09:59:45.739Z,9.418269
2024-03-08T10:00:46.779Z,9.418239
2024-03-08T10:01:45.854Z,9.418346
2024-03-08T10:02:45.739Z,9.418414
2024-03-08T10:03:45.719Z,9.418303
2024-03-08T10:04:45.720Z,9.418216
2024-03-08T10:05:45.802Z,9.418496
2024-03-08T10:06:45.730Z,9.418153
2024-03-08T10:07:45.719Z,9.418511
2024-03-08T10:08:46.304Z,9.418184
2024-03-08T10:09:46.688Z,9.418163
2024-03-08T10:10:45.774Z,9.418051
2024-03-08T10:11:45.732Z,9.418186
2024-03-08T10:12:45.679Z,9.418322
2024-03-08T10:13:45.662Z,9.418268
2024-03-08T10:14:45.663Z,9.418434
2024-03-08T10:15:45.660Z,9.417835
2024-03-08T10:16:45.670Z,9.418312
2024-03-08T10:17:45.735Z,9.418071
2024-03-08T10:18:45.640Z,9.418267
2024-03-08T10:19:45.648Z,9.418113
2024-03-08T10:20:45.615Z,9.418293
2024-03-08T10:21:45.623Z,9.418293
2024-03-08T10:22:54.344Z,9.418115
2024-03-08T10:23:47.625Z,9.418307
2024-03-08T10:24:45.590Z,9.418429
2024-03-08T10:25:45.620Z,9.418497
2024-03-08T10:26:45.618Z,9.418503
2024-03-08T10:27:46.454Z,9.418217
2024-03-08T10:28:45.689Z,9.418517
2024-03-08T10:29:45.590Z,9.418434
2024-03-08T10:30:45.561Z,9.418523
2024-03-08T10:31:45.590Z,9.418339
2024-03-08T10:32:45.557Z,9.418074
2024-03-08T10:33:45.557Z,9.418738
2024-03-08T10:34:45.722Z,9.418232
2024-03-08T10:35:45.564Z,9.418498
2024-03-08T10:36:45.571Z,9.418337
2024-03-08T10:37:45.603Z,9.418276
2024-03-08T10:38:45.527Z,9.418154
2024-03-08T10:39:45.527Z,9.418320
2024-03-08T10:40:45.522Z,9.418355
2024-03-08T10:41:45.478Z,9.418362
2024-03-08T10:42:45.473Z,9.418496
2024-03-08T10:43:47.640Z,9.418869
2024-03-08T10:44:46.320Z,9.418392
2024-03-08T10:45:45.462Z,9.418087
2024-03-08T10:46:45.458Z,9.418514
2024-03-08T10:47:45.496Z,9.418461
2024-03-08T10:48:45.444Z,9.418501
2024-03-08T10:49:45.473Z,9.418168
2024-03-08T10:50:45.416Z,9.418566
2024-03-08T10:51:45.417Z,9.418583
2024-03-08T10:52:45.480Z,9.418464
2024-03-08T10:53:46.397Z,9.418442
2024-03-08T10:54:45.540Z,9.418439
2024-03-08T10:55:45.412Z,9.418694
2024-03-08T10:56:45.380Z,9.418797
2024-03-08T10:57:45.369Z,9.419689
2024-03-08T10:58:45.434Z,9.418386
2024-03-08T10:59:45.385Z,9.418520
2024-03-08T11:00:45.358Z,9.418269
2024-03-08T11:01:46.408Z,9.418278
2024-03-08T11:02:45.359Z,9.418379
2024-03-08T11:03:45.419Z,9.418493
2024-03-08T11:04:46.375Z,9.418515
2024-03-08T11:05:47.501Z,9.418429
2024-03-08T11:06:45.346Z,9.418468
2024-03-08T11:07:45.340Z,9.418333
2024-03-08T11:08:45.322Z,9.417861
2024-03-08T11:09:45.320Z,9.417979
2024-03-08T11:10:45.432Z,9.418033
2024-03-08T11:11:45.359Z,9.418060
2024-03-08T11:12:45.297Z,9.418163
2024-03-08T11:13:45.349Z,9.418301
2024-03-08T11:14:45.267Z,9.418287
2024-03-08T11:15:45.295Z,9.418263
2024-03-08T11:16:45.344Z,9.418505
2024-03-08T11:17:45.308Z,9.418332
2024-03-08T11:18:45.325Z,9.418130
2024-03-08T11:19:45.259Z,9.418236
2024-03-08T11:20:45.247Z,9.418353
2024-03-08T11:21:45.231Z,9.418287
2024-03-08T11:22:45.241Z,9.418257
2024-03-08T11:23:45.217Z,9.418319
2024-03-08T11:24:45.229Z,9.418308
2024-03-08T11:25:45.260Z,9.418366
2024-03-08T11:26:45.195Z,9.418408
2024-03-08T11:27:45.185Z,9.418360
2024-03-08T11:28:45.228Z,9.418368
2024-03-08T11:29:45.203Z,9.418284
2024-03-08T11:30:45.189Z,9.418292
2024-03-08T11:31:45.309Z,9.418293
2024-03-08T11:32:45.163Z,9.418337
2024-03-08T11:33:45.253Z,9.418331
2024-03-08T11:34:45.305Z,9.418414
2024-03-08T11:35:45.157Z,9.418591
2024-03-08T11:36:45.134Z,9.418503
2024-03-08T11:37:45.198Z,9.418515
2024-03-08T11:38:45.189Z,9.418286
2024-03-08T11:39:46.098Z,9.418218
2024-03-08T11:40:45.150Z,9.418211
2024-03-08T11:41:45.106Z,9.418300
2024-03-08T11:42:45.076Z,9.418359
2024-03-08T11:43:45.137Z,9.418351
2024-03-08T11:44:45.060Z,9.418428